Current Conditions
Partly Cloudy
Conditions



Pressure
1020.92 (hPa) - 30.15 (inHG)
Visibility

10.0 (km) - 6.2 (miles)
Temperature
15  °C
Temperature
9  °C
Dewpoint
68  %
 Humidity
Wind Speed
8.0  m/s
18  mph
29  km/h
16  kts
Wind Direction
N
45°
E
90°
135°
S
180°
225°
W
270°
315°
 300°

West North
West
Airport Data
EKKA
Karup Airport
Metar :EKKA 031150Z AUTO 30016KT 9999 FEW027/// BKN044/// 15/09 Q1021 TEMPO 30012G22KT
Mon 3rd October 13:50 pm
Raw Metar Info
Raw METAR is the most common format in the world for the transmission of observational weather data. It is highly standardized through the International Civil Aviation Organization (ICAO), which allows it to be understood throughout most of the world.
API Info
Data Provided by
https://www.checkwx.com/weather/EKKA

Aviation Weather providing METAR, TAF, AIRMET, SIGMET and OUTLOOK Weather Reports
© Info
CSS/SVG/PHP scripts were developed by weather34.com for use in the weather34 template © 2015-2022

Guide Info provided by Metar-Wikipedia